Pretty Lady — 9HVY9 — position and weather

sailwx.info

Track history (hours):
 
Tides and Currents Weather Stations Pressure Air Temp Water Temp Dewpoint Dewpoint Depression Visibility Wind Speed Wind Dir Waves Ship Positions

Pretty Lady

Last reported at 2016-Jun-30 15:34 UTC. Time now 2016-Jun-30 15:55 UTC.
Position N 37°49' W 000°28'.

Length 189 m; draft 10.6 m.

Type: Cargo ship. MMSI: 249617000.

Date/timePositionNaut miles runAvg speedWind from/ knotsBaromVisibWave heightAir tempDewpointWater temp
2016-Jun-30 15:34N 37°49' W 000°28'1312.9
2016-Jun-30 14:34N 38°02' W 000°24'1211.6
2016-Jun-30 13:33N 38°13' W 000°24'8 0.6
2016-Jun-30 00:05N 38°20' W 000°30'0 0.0
2016-Jun-29 23:29N 38°20' W 000°30'0 0.0
2016-Jun-29 22:11N 38°20' W 000°30'0 0.0
2016-Jun-29 21:10N 38°20' W 000°30'2 0.1
2016-Jun-28 03:33N 38°18' W 000°27'  
2016-Jun-25 22:32N 38°19' W 000°23'1010.4
2016-Jun-25 21:33N 38°19' W 000°10'1212.4
2016-Jun-25 20:34N 38°17' E 000°05'1212.1
2016-Jun-25 19:33N 38°16' E 000°20'1212.2
2016-Jun-25 18:33N 38°15' E 000°36'1211.9
2016-Jun-25 17:33N 38°14' E 000°51'1211.9
2016-Jun-25 16:32N 38°13' E 001°07'1212.2
2016-Jun-25 15:33N 38°12' E 001°22'1212.5
2016-Jun-25 14:33N 38°11' E 001°38'1212.2
2016-Jun-25 13:33N 38°10' E 001°53'1312.3
2016-Jun-25 12:31N 38°09' E 002°09'1212.5
2016-Jun-25 11:33N 38°08' E 002°24'1212.3
2016-Jun-25 10:33N 38°07' E 002°40'1313.0
2016-Jun-25 09:33N 38°06' E 002°57'1414.0
2016-Jun-25 08:33N 38°05' E 003°14'1212.3
2016-Jun-25 07:33N 38°04' E 003°30'1312.5
2016-Jun-25 06:33N 38°03' E 003°46'1212.5
2016-Jun-25 05:33N 38°02' E 004°01'1312.5
2016-Jun-25 04:33N 38°01' E 004°17'1312.7
2016-Jun-25 03:34N 37°60' E 004°33'1312.6
2016-Jun-25 02:30N 37°59' E 004°50'1212.3
2016-Jun-25 01:32N 37°58' E 005°05'1411.9
2016-Jun-25 00:23N 37°57' E 005°22'1011.8
2016-Jun-24 23:30N 37°56' E 005°36'1111.4
2016-Jun-24 22:32N 37°56' E 005°50'1211.7
2016-Jun-24 21:30N 37°54' E 006°05'11112.2
2016-Jun-24 12:24N 37°45' E 008°25'12111.0
2016-Jun-24 01:25N 37°30' E 010°56'11411.5
2016-Jun-23 15:30N 36°43' E 013°06'1010.8
2016-Jun-23 14:33N 36°40' E 013°18'1110.7
2016-Jun-23 13:34N 36°38' E 013°31'1111.2
2016-Jun-23 12:33N 36°33' E 013°44'1211.7
2016-Jun-23 11:33N 36°28' E 013°57'1211.9
2016-Jun-23 10:33N 36°23' E 014°10'1211.7
2016-Jun-23 09:34N 36°18' E 014°24'1111.5
2016-Jun-23 08:34N 36°12' E 014°36'1110.9
2016-Jun-23 07:33N 36°02' E 014°41'10 4.9
2016-Jun-23 05:33N 35°52' E 014°45'0 0.0
2016-Jun-23 04:33N 35°52' E 014°45'0 0.0
2016-Jun-23 03:30N 35°52' E 014°45'0 0.0
2016-Jun-23 02:33N 35°52' E 014°45'0 0.0
2016-Jun-23 01:33N 35°52' E 014°45'0 0.0
2016-Jun-23 00:33N 35°52' E 014°45'0 0.0
2016-Jun-22 23:33N 35°52' E 014°45'0 0.0
2016-Jun-22 22:33N 35°52' E 014°45'0 0.0
2016-Jun-22 21:33N 35°52' E 014°45'4 4.2
2016-Jun-22 20:33N 35°51' E 014°50'9 9.0
2016-Jun-22 19:33N 35°55' E 014°60'0 0.4
2016-Jun-22 18:33N 35°55' E 014°60'0 0.4
2016-Jun-22 17:33N 35°56' E 015°00'1 1.3
2016-Jun-22 16:33N 35°56' E 015°02'8 8.3
2016-Jun-22 15:33N 35°60' E 015°11'7 6.1
2016-Jun-22 14:29N 36°03' E 015°18'203 9.6
2016-Jun-21 17:21N 36°19' E 019°29'  
Track history (hours):
 
Tides and Currents Weather Stations Pressure Air Temp Water Temp Dewpoint Dewpoint Depression Visibility Wind Speed Wind Dir Waves Ship Positions

Pretty Lady

Last reported at 2016-Jun-30 15:34 UTC. Time now 2016-Jun-30 15:55 UTC.
Position N 37°49' W 000°28'.

Length 189 m; draft 10.6 m.

Type: Cargo ship. MMSI: 249617000.

Date/timePositionNaut miles runAvg speedWind from/ knotsBaromVisibWave heightAir tempDewpointWater temp
2016-Jun-30 15:34N 37°49' W 000°28'1312.9
2016-Jun-30 14:34N 38°02' W 000°24'1211.6
2016-Jun-30 13:33N 38°13' W 000°24'8 0.6
2016-Jun-30 00:05N 38°20' W 000°30'0 0.0
2016-Jun-29 23:29N 38°20' W 000°30'0 0.0
2016-Jun-29 22:11N 38°20' W 000°30'0 0.0
2016-Jun-29 21:10N 38°20' W 000°30'2 0.1
2016-Jun-28 03:33N 38°18' W 000°27'  
2016-Jun-25 22:32N 38°19' W 000°23'1010.4
2016-Jun-25 21:33N 38°19' W 000°10'1212.4
2016-Jun-25 20:34N 38°17' E 000°05'1212.1
2016-Jun-25 19:33N 38°16' E 000°20'1212.2
2016-Jun-25 18:33N 38°15' E 000°36'1211.9
2016-Jun-25 17:33N 38°14' E 000°51'1211.9
2016-Jun-25 16:32N 38°13' E 001°07'1212.2
2016-Jun-25 15:33N 38°12' E 001°22'1212.5
2016-Jun-25 14:33N 38°11' E 001°38'1212.2
2016-Jun-25 13:33N 38°10' E 001°53'1312.3
2016-Jun-25 12:31N 38°09' E 002°09'1212.5
2016-Jun-25 11:33N 38°08' E 002°24'1212.3
2016-Jun-25 10:33N 38°07' E 002°40'1313.0
2016-Jun-25 09:33N 38°06' E 002°57'1414.0
2016-Jun-25 08:33N 38°05' E 003°14'1212.3
2016-Jun-25 07:33N 38°04' E 003°30'1312.5
2016-Jun-25 06:33N 38°03' E 003°46'1212.5
2016-Jun-25 05:33N 38°02' E 004°01'1312.5
2016-Jun-25 04:33N 38°01' E 004°17'1312.7
2016-Jun-25 03:34N 37°60' E 004°33'1312.6
2016-Jun-25 02:30N 37°59' E 004°50'1212.3
2016-Jun-25 01:32N 37°58' E 005°05'1411.9
2016-Jun-25 00:23N 37°57' E 005°22'1011.8
2016-Jun-24 23:30N 37°56' E 005°36'1111.4
2016-Jun-24 22:32N 37°56' E 005°50'1211.7
2016-Jun-24 21:30N 37°54' E 006°05'11112.2
2016-Jun-24 12:24N 37°45' E 008°25'12111.0
2016-Jun-24 01:25N 37°30' E 010°56'11411.5
2016-Jun-23 15:30N 36°43' E 013°06'1010.8
2016-Jun-23 14:33N 36°40' E 013°18'1110.7
2016-Jun-23 13:34N 36°38' E 013°31'1111.2
2016-Jun-23 12:33N 36°33' E 013°44'1211.7
2016-Jun-23 11:33N 36°28' E 013°57'1211.9
2016-Jun-23 10:33N 36°23' E 014°10'1211.7
2016-Jun-23 09:34N 36°18' E 014°24'1111.5
2016-Jun-23 08:34N 36°12' E 014°36'1110.9
2016-Jun-23 07:33N 36°02' E 014°41'10 4.9
2016-Jun-23 05:33N 35°52' E 014°45'0 0.0
2016-Jun-23 04:33N 35°52' E 014°45'0 0.0
2016-Jun-23 03:30N 35°52' E 014°45'0 0.0
2016-Jun-23 02:33N 35°52' E 014°45'0 0.0
2016-Jun-23 01:33N 35°52' E 014°45'0 0.0
2016-Jun-23 00:33N 35°52' E 014°45'0 0.0
2016-Jun-22 23:33N 35°52' E 014°45'0 0.0
2016-Jun-22 22:33N 35°52' E 014°45'0 0.0
2016-Jun-22 21:33N 35°52' E 014°45'4 4.2
2016-Jun-22 20:33N 35°51' E 014°50'9 9.0
2016-Jun-22 19:33N 35°55' E 014°60'0 0.4
2016-Jun-22 18:33N 35°55' E 014°60'0 0.4
2016-Jun-22 17:33N 35°56' E 015°00'1 1.3
2016-Jun-22 16:33N 35°56' E 015°02'8 8.3
2016-Jun-22 15:33N 35°60' E 015°11'7 6.1
2016-Jun-22 14:29N 36°03' E 015°18'203 9.6
2016-Jun-21 17:21N 36°19' E 019°29'  

Dump ship's entire track history